sensor_id;sensor_type;location;lat;lon;timestamp;P1;durP1;ratioP1;P2;durP2;ratioP2
50681;SDS011;36779;52.168;20.878;2023-06-22T00:01:32;25.00;;;17.00;;
50681;SDS011;36779;52.168;20.878;2023-06-22T00:04:07;23.40;;;17.30;;
50681;SDS011;36779;52.168;20.878;2023-06-22T00:06:36;21.30;;;16.30;;
50681;SDS011;36779;52.168;20.878;2023-06-22T00:09:07;22.00;;;16.20;;
50681;SDS011;36779;52.168;20.878;2023-06-22T00:11:39;22.40;;;16.00;;
50681;SDS011;36779;52.168;20.878;2023-06-22T00:14:08;22.10;;;16.40;;
50681;SDS011;36779;52.168;20.878;2023-06-22T00:19:24;20.00;;;14.70;;
50681;SDS011;36779;52.168;20.878;2023-06-22T00:21:56;24.60;;;16.50;;
50681;SDS011;36779;52.168;20.878;2023-06-22T00:24:30;24.80;;;17.70;;
50681;SDS011;36779;52.168;20.878;2023-06-22T00:26:58;24.00;;;16.00;;
50681;SDS011;36779;52.168;20.878;2023-06-22T00:29:27;25.30;;;16.80;;
50681;SDS011;36779;52.168;20.878;2023-06-22T00:31:56;24.30;;;16.50;;
50681;SDS011;36779;52.168;20.878;2023-06-22T00:34:27;23.30;;;16.10;;
50681;SDS011;36779;52.168;20.878;2023-06-22T00:37:02;26.80;;;17.40;;
50681;SDS011;36779;52.168;20.878;2023-06-22T00:39:34;24.80;;;17.40;;
50681;SDS011;36779;52.168;20.878;2023-06-22T00:42:08;26.80;;;16.50;;
50681;SDS011;36779;52.168;20.878;2023-06-22T00:44:37;24.70;;;17.20;;
50681;SDS011;36779;52.168;20.878;2023-06-22T00:47:09;25.00;;;17.30;;
50681;SDS011;36779;52.168;20.878;2023-06-22T00:49:39;26.10;;;18.30;;
50681;SDS011;36779;52.168;20.878;2023-06-22T00:52:09;24.90;;;17.40;;
50681;SDS011;36779;52.168;20.878;2023-06-22T00:54:41;23.70;;;16.50;;
50681;SDS011;36779;52.168;20.878;2023-06-22T00:57:13;26.10;;;17.30;;
50681;SDS011;36779;52.168;20.878;2023-06-22T00:59:42;21.30;;;16.00;;
50681;SDS011;36779;52.168;20.878;2023-06-22T01:02:16;26.40;;;17.60;;
50681;SDS011;36779;52.168;20.878;2023-06-22T01:04:45;24.00;;;17.00;;
50681;SDS011;36779;52.168;20.878;2023-06-22T01:07:17;21.80;;;16.40;;
50681;SDS011;36779;52.168;20.878;2023-06-22T01:09:54;22.60;;;16.80;;
50681;SDS011;36779;52.168;20.878;2023-06-22T01:12:32;22.10;;;15.60;;
50681;SDS011;36779;52.168;20.878;2023-06-22T01:15:08;21.60;;;17.00;;
50681;SDS011;36779;52.168;20.878;2023-06-22T01:17:42;23.00;;;15.70;;
50681;SDS011;36779;52.168;20.878;2023-06-22T01:20:15;22.40;;;16.30;;
50681;SDS011;36779;52.168;20.878;2023-06-22T01:22:50;21.30;;;16.30;;
50681;SDS011;36779;52.168;20.878;2023-06-22T01:25:42;25.80;;;16.10;;
50681;SDS011;36779;52.168;20.878;2023-06-22T01:28:23;22.70;;;16.30;;
50681;SDS011;36779;52.168;20.878;2023-06-22T01:31:05;25.00;;;17.50;;
50681;SDS011;36779;52.168;20.878;2023-06-22T01:33:42;25.40;;;17.70;;
50681;SDS011;36779;52.168;20.878;2023-06-22T01:36:13;28.00;;;18.10;;
50681;SDS011;36779;52.168;20.878;2023-06-22T01:38:50;26.70;;;18.00;;
50681;SDS011;36779;52.168;20.878;2023-06-22T01:41:24;24.20;;;16.80;;
50681;SDS011;36779;52.168;20.878;2023-06-22T01:43:56;23.10;;;15.70;;
50681;SDS011;36779;52.168;20.878;2023-06-22T01:46:42;23.10;;;15.70;;
50681;SDS011;36779;52.168;20.878;2023-06-22T01:49:14;23.80;;;16.10;;
50681;SDS011;36779;52.168;20.878;2023-06-22T01:51:44;26.10;;;17.60;;
50681;SDS011;36779;52.168;20.878;2023-06-22T01:54:13;25.00;;;17.60;;
50681;SDS011;36779;52.168;20.878;2023-06-22T01:56:45;23.30;;;16.40;;
50681;SDS011;36779;52.168;20.878;2023-06-22T01:59:15;23.30;;;16.50;;
50681;SDS011;36779;52.168;20.878;2023-06-22T02:01:55;23.00;;;16.90;;
50681;SDS011;36779;52.168;20.878;2023-06-22T02:04:32;23.70;;;17.80;;
50681;SDS011;36779;52.168;20.878;2023-06-22T02:07:05;23.70;;;16.40;;
50681;SDS011;36779;52.168;20.878;2023-06-22T02:09:40;22.10;;;15.50;;
50681;SDS011;36779;52.168;20.878;2023-06-22T02:12:21;22.10;;;16.30;;
50681;SDS011;36779;52.168;20.878;2023-06-22T02:14:55;26.00;;;17.80;;
50681;SDS011;36779;52.168;20.878;2023-06-22T02:17:28;26.80;;;17.70;;
50681;SDS011;36779;52.168;20.878;2023-06-22T02:20:01;26.50;;;17.50;;
50681;SDS011;36779;52.168;20.878;2023-06-22T02:22:33;28.40;;;19.30;;
50681;SDS011;36779;52.168;20.878;2023-06-22T02:25:04;33.30;;;22.00;;
50681;SDS011;36779;52.168;20.878;2023-06-22T02:27:33;41.40;;;23.80;;
50681;SDS011;36779;52.168;20.878;2023-06-22T02:30:03;35.60;;;25.30;;
50681;SDS011;36779;52.168;20.878;2023-06-22T02:32:34;37.60;;;23.00;;
50681;SDS011;36779;52.168;20.878;2023-06-22T02:35:09;44.20;;;25.30;;
50681;SDS011;36779;52.168;20.878;2023-06-22T02:37:42;37.60;;;22.40;;
50681;SDS011;36779;52.168;20.878;2023-06-22T02:40:12;39.80;;;25.60;;
50681;SDS011;36779;52.168;20.878;2023-06-22T02:42:42;42.30;;;25.40;;
50681;SDS011;36779;52.168;20.878;2023-06-22T02:45:13;40.40;;;26.00;;
50681;SDS011;36779;52.168;20.878;2023-06-22T02:47:43;43.10;;;25.50;;
50681;SDS011;36779;52.168;20.878;2023-06-22T02:50:16;44.90;;;25.90;;
50681;SDS011;36779;52.168;20.878;2023-06-22T02:52:54;45.70;;;27.10;;
50681;SDS011;36779;52.168;20.878;2023-06-22T02:55:23;45.70;;;28.00;;
50681;SDS011;36779;52.168;20.878;2023-06-22T02:57:55;41.00;;;26.00;;
50681;SDS011;36779;52.168;20.878;2023-06-22T03:00:27;48.40;;;27.20;;
50681;SDS011;36779;52.168;20.878;2023-06-22T03:02:59;44.60;;;26.90;;
50681;SDS011;36779;52.168;20.878;2023-06-22T03:05:29;52.00;;;26.40;;
50681;SDS011;36779;52.168;20.878;2023-06-22T03:08:05;50.50;;;28.10;;
50681;SDS011;36779;52.168;20.878;2023-06-22T03:10:34;47.60;;;25.90;;
50681;SDS011;36779;52.168;20.878;2023-06-22T03:13:04;42.30;;;26.80;;
50681;SDS011;36779;52.168;20.878;2023-06-22T03:15:36;44.10;;;27.70;;
50681;SDS011;36779;52.168;20.878;2023-06-22T03:18:07;43.00;;;26.80;;
50681;SDS011;36779;52.168;20.878;2023-06-22T03:20:40;43.10;;;26.50;;
50681;SDS011;36779;52.168;20.878;2023-06-22T03:23:10;43.20;;;27.50;;
50681;SDS011;36779;52.168;20.878;2023-06-22T03:25:43;43.20;;;27.80;;
50681;SDS011;36779;52.168;20.878;2023-06-22T03:28:21;46.40;;;27.00;;
50681;SDS011;36779;52.168;20.878;2023-06-22T03:30:52;47.90;;;26.70;;
50681;SDS011;36779;52.168;20.878;2023-06-22T03:33:23;42.80;;;27.50;;
50681;SDS011;36779;52.168;20.878;2023-06-22T03:35:53;49.00;;;27.10;;
50681;SDS011;36779;52.168;20.878;2023-06-22T03:38:22;42.60;;;26.40;;
50681;SDS011;36779;52.168;20.878;2023-06-22T03:40:56;45.10;;;29.40;;
50681;SDS011;36779;52.168;20.878;2023-06-22T03:43:29;43.20;;;26.30;;
50681;SDS011;36779;52.168;20.878;2023-06-22T03:49:10;42.60;;;25.30;;
50681;SDS011;36779;52.168;20.878;2023-06-22T03:51:40;41.90;;;25.80;;
50681;SDS011;36779;52.168;20.878;2023-06-22T03:54:11;40.10;;;23.70;;
50681;SDS011;36779;52.168;20.878;2023-06-22T03:56:43;38.90;;;24.60;;
50681;SDS011;36779;52.168;20.878;2023-06-22T03:59:16;30.50;;;19.90;;
50681;SDS011;36779;52.168;20.878;2023-06-22T04:01:47;39.40;;;24.50;;
50681;SDS011;36779;52.168;20.878;2023-06-22T04:04:19;39.90;;;26.20;;
50681;SDS011;36779;52.168;20.878;2023-06-22T04:06:48;40.00;;;25.10;;
50681;SDS011;36779;52.168;20.878;2023-06-22T04:09:19;37.40;;;26.20;;
50681;SDS011;36779;52.168;20.878;2023-06-22T04:11:51;35.60;;;23.70;;
50681;SDS011;36779;52.168;20.878;2023-06-22T04:14:29;37.10;;;26.60;;
50681;SDS011;36779;52.168;20.878;2023-06-22T04:17:05;40.10;;;25.00;;
50681;SDS011;36779;52.168;20.878;2023-06-22T04:19:39;34.30;;;24.60;;
50681;SDS011;36779;52.168;20.878;2023-06-22T04:22:11;38.70;;;25.70;;
50681;SDS011;36779;52.168;20.878;2023-06-22T04:24:47;34.80;;;24.10;;
50681;SDS011;36779;52.168;20.878;2023-06-22T04:27:20;35.30;;;21.40;;
50681;SDS011;36779;52.168;20.878;2023-06-22T04:29:51;35.70;;;23.70;;
50681;SDS011;36779;52.168;20.878;2023-06-22T04:32:21;33.50;;;21.50;;
50681;SDS011;36779;52.168;20.878;2023-06-22T04:34:49;30.40;;;20.70;;
50681;SDS011;36779;52.168;20.878;2023-06-22T04:37:26;33.60;;;23.70;;
50681;SDS011;36779;52.168;20.878;2023-06-22T04:39:56;32.70;;;23.70;;
50681;SDS011;36779;52.168;20.878;2023-06-22T04:42:31;34.80;;;24.00;;
50681;SDS011;36779;52.168;20.878;2023-06-22T04:45:20;34.70;;;24.60;;
50681;SDS011;36779;52.168;20.878;2023-06-22T04:47:50;32.10;;;23.40;;
50681;SDS011;36779;52.168;20.878;2023-06-22T04:50:24;30.70;;;22.40;;
50681;SDS011;36779;52.168;20.878;2023-06-22T04:52:57;30.30;;;20.70;;
50681;SDS011;36779;52.168;20.878;2023-06-22T04:55:26;28.50;;;21.30;;
50681;SDS011;36779;52.168;20.878;2023-06-22T04:57:59;32.70;;;20.70;;
50681;SDS011;36779;52.168;20.878;2023-06-22T05:00:39;31.00;;;21.00;;
50681;SDS011;36779;52.168;20.878;2023-06-22T05:03:21;35.90;;;20.90;;
50681;SDS011;36779;52.168;20.878;2023-06-22T05:05:53;30.00;;;18.90;;
50681;SDS011;36779;52.168;20.878;2023-06-22T05:08:26;30.20;;;20.60;;
50681;SDS011;36779;52.168;20.878;2023-06-22T05:10:56;28.20;;;18.90;;
50681;SDS011;36779;52.168;20.878;2023-06-22T05:13:33;24.10;;;16.80;;
50681;SDS011;36779;52.168;20.878;2023-06-22T05:16:02;28.00;;;19.80;;
50681;SDS011;36779;52.168;20.878;2023-06-22T05:18:33;26.70;;;19.00;;
50681;SDS011;36779;52.168;20.878;2023-06-22T05:21:07;27.40;;;18.80;;
50681;SDS011;36779;52.168;20.878;2023-06-22T05:23:39;29.30;;;20.60;;
50681;SDS011;36779;52.168;20.878;2023-06-22T05:26:11;24.30;;;17.40;;
50681;SDS011;36779;52.168;20.878;2023-06-22T05:28:40;25.50;;;17.20;;
50681;SDS011;36779;52.168;20.878;2023-06-22T05:31:13;26.60;;;19.90;;
50681;SDS011;36779;52.168;20.878;2023-06-22T05:33:44;26.20;;;19.30;;
50681;SDS011;36779;52.168;20.878;2023-06-22T05:36:26;21.10;;;16.40;;
50681;SDS011;36779;52.168;20.878;2023-06-22T05:39:11;23.60;;;16.50;;
50681;SDS011;36779;52.168;20.878;2023-06-22T05:44:11;23.70;;;16.70;;
50681;SDS011;36779;52.168;20.878;2023-06-22T05:46:44;26.60;;;15.60;;
50681;SDS011;36779;52.168;20.878;2023-06-22T05:49:18;20.60;;;15.50;;
50681;SDS011;36779;52.168;20.878;2023-06-22T05:51:49;24.30;;;17.30;;
50681;SDS011;36779;52.168;20.878;2023-06-22T05:54:21;24.00;;;18.90;;
50681;SDS011;36779;52.168;20.878;2023-06-22T05:56:49;21.50;;;15.70;;
50681;SDS011;36779;52.168;20.878;2023-06-22T05:59:18;21.70;;;16.90;;
50681;SDS011;36779;52.168;20.878;2023-06-22T06:01:49;24.70;;;16.50;;
50681;SDS011;36779;52.168;20.878;2023-06-22T06:04:19;19.50;;;14.80;;
50681;SDS011;36779;52.168;20.878;2023-06-22T06:06:48;23.50;;;17.10;;
50681;SDS011;36779;52.168;20.878;2023-06-22T06:09:17;21.70;;;15.50;;
50681;SDS011;36779;52.168;20.878;2023-06-22T06:11:50;20.40;;;16.70;;
50681;SDS011;36779;52.168;20.878;2023-06-22T06:14:19;20.70;;;16.00;;
50681;SDS011;36779;52.168;20.878;2023-06-22T06:16:48;22.70;;;15.20;;
50681;SDS011;36779;52.168;20.878;2023-06-22T06:19:18;22.80;;;16.00;;
50681;SDS011;36779;52.168;20.878;2023-06-22T06:21:47;21.10;;;17.20;;
50681;SDS011;36779;52.168;20.878;2023-06-22T06:24:19;21.10;;;17.40;;
50681;SDS011;36779;52.168;20.878;2023-06-22T06:26:50;24.00;;;16.10;;
50681;SDS011;36779;52.168;20.878;2023-06-22T06:29:19;21.10;;;17.50;;
50681;SDS011;36779;52.168;20.878;2023-06-22T06:31:48;22.30;;;15.10;;
50681;SDS011;36779;52.168;20.878;2023-06-22T06:34:18;23.00;;;14.70;;
50681;SDS011;36779;52.168;20.878;2023-06-22T06:36:51;21.70;;;17.40;;
50681;SDS011;36779;52.168;20.878;2023-06-22T06:39:32;19.60;;;16.90;;
50681;SDS011;36779;52.168;20.878;2023-06-22T06:42:00;19.70;;;15.20;;
50681;SDS011;36779;52.168;20.878;2023-06-22T06:44:30;19.60;;;16.20;;
50681;SDS011;36779;52.168;20.878;2023-06-22T06:46:58;17.50;;;15.60;;
50681;SDS011;36779;52.168;20.878;2023-06-22T06:49:27;16.90;;;14.00;;
50681;SDS011;36779;52.168;20.878;2023-06-22T06:51:56;17.80;;;15.90;;
50681;SDS011;36779;52.168;20.878;2023-06-22T06:54:25;17.80;;;13.90;;
50681;SDS011;36779;52.168;20.878;2023-06-22T06:56:56;15.40;;;13.40;;
50681;SDS011;36779;52.168;20.878;2023-06-22T06:59:25;16.60;;;13.80;;
50681;SDS011;36779;52.168;20.878;2023-06-22T07:01:55;16.80;;;14.80;;
50681;SDS011;36779;52.168;20.878;2023-06-22T07:04:24;16.00;;;14.10;;
50681;SDS011;36779;52.168;20.878;2023-06-22T07:06:55;16.80;;;13.50;;
50681;SDS011;36779;52.168;20.878;2023-06-22T07:09:24;16.40;;;13.90;;
50681;SDS011;36779;52.168;20.878;2023-06-22T07:11:53;14.40;;;13.00;;
50681;SDS011;36779;52.168;20.878;2023-06-22T07:14:21;14.30;;;12.60;;
50681;SDS011;36779;52.168;20.878;2023-06-22T07:16:51;13.40;;;12.00;;
50681;SDS011;36779;52.168;20.878;2023-06-22T07:19:24;13.50;;;11.90;;
50681;SDS011;36779;52.168;20.878;2023-06-22T07:21:56;15.30;;;11.80;;
50681;SDS011;36779;52.168;20.878;2023-06-22T07:24:27;12.20;;;10.10;;
50681;SDS011;36779;52.168;20.878;2023-06-22T07:26:55;11.20;;;10.10;;
50681;SDS011;36779;52.168;20.878;2023-06-22T07:29:30;16.40;;;11.60;;
50681;SDS011;36779;52.168;20.878;2023-06-22T07:32:14;13.80;;;11.70;;
50681;SDS011;36779;52.168;20.878;2023-06-22T07:34:44;12.70;;;11.30;;
50681;SDS011;36779;52.168;20.878;2023-06-22T07:37:15;11.80;;;10.60;;
50681;SDS011;36779;52.168;20.878;2023-06-22T07:39:44;11.70;;;10.40;;
50681;SDS011;36779;52.168;20.878;2023-06-22T07:42:13;11.50;;;9.70;;
50681;SDS011;36779;52.168;20.878;2023-06-22T07:44:50;10.90;;;9.60;;
50681;SDS011;36779;52.168;20.878;2023-06-22T07:47:26;11.40;;;9.60;;
50681;SDS011;36779;52.168;20.878;2023-06-22T07:49:58;12.40;;;9.50;;
50681;SDS011;36779;52.168;20.878;2023-06-22T07:52:28;10.20;;;8.80;;
50681;SDS011;36779;52.168;20.878;2023-06-22T07:54:58;10.00;;;9.00;;
50681;SDS011;36779;52.168;20.878;2023-06-22T07:57:26;12.10;;;8.90;;
50681;SDS011;36779;52.168;20.878;2023-06-22T08:00:01;12.20;;;8.40;;
50681;SDS011;36779;52.168;20.878;2023-06-22T08:02:44;8.10;;;7.30;;
50681;SDS011;36779;52.168;20.878;2023-06-22T08:05:15;8.30;;;7.20;;
50681;SDS011;36779;52.168;20.878;2023-06-22T08:08:04;12.80;;;8.70;;
50681;SDS011;36779;52.168;20.878;2023-06-22T08:10:33;12.00;;;8.90;;
50681;SDS011;36779;52.168;20.878;2023-06-22T08:13:09;13.70;;;9.40;;
50681;SDS011;36779;52.168;20.878;2023-06-22T08:15:39;10.70;;;7.30;;
50681;SDS011;36779;52.168;20.878;2023-06-22T08:18:07;11.00;;;8.30;;
50681;SDS011;36779;52.168;20.878;2023-06-22T08:20:39;8.50;;;7.70;;
50681;SDS011;36779;52.168;20.878;2023-06-22T08:23:08;9.60;;;7.90;;
50681;SDS011;36779;52.168;20.878;2023-06-22T08:25:39;11.20;;;7.60;;
50681;SDS011;36779;52.168;20.878;2023-06-22T08:28:08;12.40;;;7.70;;
50681;SDS011;36779;52.168;20.878;2023-06-22T08:30:39;10.30;;;7.20;;
50681;SDS011;36779;52.168;20.878;2023-06-22T08:33:07;9.70;;;6.40;;
50681;SDS011;36779;52.168;20.878;2023-06-22T08:35:44;7.40;;;5.60;;
50681;SDS011;36779;52.168;20.878;2023-06-22T08:38:13;8.50;;;6.30;;
50681;SDS011;36779;52.168;20.878;2023-06-22T08:40:42;6.50;;;5.80;;
50681;SDS011;36779;52.168;20.878;2023-06-22T08:43:11;6.20;;;5.50;;
50681;SDS011;36779;52.168;20.878;2023-06-22T08:45:40;7.70;;;5.80;;
50681;SDS011;36779;52.168;20.878;2023-06-22T08:48:11;6.50;;;5.10;;
50681;SDS011;36779;52.168;20.878;2023-06-22T08:50:40;6.10;;;5.10;;
50681;SDS011;36779;52.168;20.878;2023-06-22T08:53:11;4.90;;;4.40;;
50681;SDS011;36779;52.168;20.878;2023-06-22T08:55:43;6.20;;;4.50;;
50681;SDS011;36779;52.168;20.878;2023-06-22T08:58:12;7.10;;;4.50;;
50681;SDS011;36779;52.168;20.878;2023-06-22T09:00:41;6.80;;;4.50;;
50681;SDS011;36779;52.168;20.878;2023-06-22T09:03:10;7.70;;;4.40;;
50681;SDS011;36779;52.168;20.878;2023-06-22T09:05:40;4.40;;;3.80;;
50681;SDS011;36779;52.168;20.878;2023-06-22T09:08:10;5.00;;;3.90;;
50681;SDS011;36779;52.168;20.878;2023-06-22T09:10:39;6.50;;;4.10;;
50681;SDS011;36779;52.168;20.878;2023-06-22T09:13:08;6.80;;;4.00;;
50681;SDS011;36779;52.168;20.878;2023-06-22T09:15:40;5.80;;;3.50;;
50681;SDS011;36779;52.168;20.878;2023-06-22T09:18:10;6.30;;;3.70;;
50681;SDS011;36779;52.168;20.878;2023-06-22T09:20:39;4.40;;;3.20;;
50681;SDS011;36779;52.168;20.878;2023-06-22T09:23:08;4.10;;;3.60;;
50681;SDS011;36779;52.168;20.878;2023-06-22T09:25:39;4.10;;;3.20;;
50681;SDS011;36779;52.168;20.878;2023-06-22T09:28:08;3.80;;;2.90;;
50681;SDS011;36779;52.168;20.878;2023-06-22T09:30:39;6.60;;;3.00;;
50681;SDS011;36779;52.168;20.878;2023-06-22T09:33:10;3.40;;;3.00;;
50681;SDS011;36779;52.168;20.878;2023-06-22T09:35:39;4.20;;;3.10;;
50681;SDS011;36779;52.168;20.878;2023-06-22T09:38:16;4.60;;;2.90;;
50681;SDS011;36779;52.168;20.878;2023-06-22T09:40:45;4.20;;;2.80;;
50681;SDS011;36779;52.168;20.878;2023-06-22T09:43:19;3.00;;;2.70;;
50681;SDS011;36779;52.168;20.878;2023-06-22T09:45:48;7.50;;;3.80;;
50681;SDS011;36779;52.168;20.878;2023-06-22T09:48:18;4.50;;;3.20;;
50681;SDS011;36779;52.168;20.878;2023-06-22T09:50:49;7.40;;;3.30;;
50681;SDS011;36779;52.168;20.878;2023-06-22T09:53:21;3.60;;;3.30;;
50681;SDS011;36779;52.168;20.878;2023-06-22T09:55:50;6.20;;;3.40;;
50681;SDS011;36779;52.168;20.878;2023-06-22T09:58:18;5.00;;;3.60;;
50681;SDS011;36779;52.168;20.878;2023-06-22T10:00:48;4.50;;;3.30;;
50681;SDS011;36779;52.168;20.878;2023-06-22T10:03:17;3.80;;;3.50;;
50681;SDS011;36779;52.168;20.878;2023-06-22T10:05:47;5.10;;;3.40;;
50681;SDS011;36779;52.168;20.878;2023-06-22T10:08:16;4.60;;;2.90;;
50681;SDS011;36779;52.168;20.878;2023-06-22T10:10:44;4.70;;;3.40;;
50681;SDS011;36779;52.168;20.878;2023-06-22T10:13:13;4.00;;;3.40;;
50681;SDS011;36779;52.168;20.878;2023-06-22T10:15:43;5.80;;;3.50;;
50681;SDS011;36779;52.168;20.878;2023-06-22T10:18:18;4.40;;;4.00;;
50681;SDS011;36779;52.168;20.878;2023-06-22T10:20:49;4.10;;;3.70;;
50681;SDS011;36779;52.168;20.878;2023-06-22T10:23:19;6.30;;;3.90;;
50681;SDS011;36779;52.168;20.878;2023-06-22T10:25:48;4.50;;;3.90;;
50681;SDS011;36779;52.168;20.878;2023-06-22T10:28:18;5.10;;;4.30;;
50681;SDS011;36779;52.168;20.878;2023-06-22T10:30:46;4.90;;;3.70;;
50681;SDS011;36779;52.168;20.878;2023-06-22T10:33:16;4.40;;;3.50;;
50681;SDS011;36779;52.168;20.878;2023-06-22T10:35:45;7.10;;;4.40;;
50681;SDS011;36779;52.168;20.878;2023-06-22T10:38:14;6.00;;;4.00;;
50681;SDS011;36779;52.168;20.878;2023-06-22T10:40:43;6.00;;;3.90;;
50681;SDS011;36779;52.168;20.878;2023-06-22T10:43:12;4.70;;;4.00;;
50681;SDS011;36779;52.168;20.878;2023-06-22T10:45:41;4.30;;;3.70;;
50681;SDS011;36779;52.168;20.878;2023-06-22T10:48:10;9.00;;;5.10;;
50681;SDS011;36779;52.168;20.878;2023-06-22T10:50:39;5.90;;;4.40;;
50681;SDS011;36779;52.168;20.878;2023-06-22T10:53:08;4.30;;;3.80;;
50681;SDS011;36779;52.168;20.878;2023-06-22T10:55:39;4.10;;;3.70;;
50681;SDS011;36779;52.168;20.878;2023-06-22T10:58:14;6.90;;;4.40;;
50681;SDS011;36779;52.168;20.878;2023-06-22T11:00:43;4.70;;;4.30;;
50681;SDS011;36779;52.168;20.878;2023-06-22T11:03:11;4.70;;;4.30;;
50681;SDS011;36779;52.168;20.878;2023-06-22T11:05:42;4.90;;;4.00;;
50681;SDS011;36779;52.168;20.878;2023-06-22T11:08:11;6.20;;;4.00;;
50681;SDS011;36779;52.168;20.878;2023-06-22T11:10:40;4.30;;;3.90;;
50681;SDS011;36779;52.168;20.878;2023-06-22T11:13:09;6.00;;;4.10;;
50681;SDS011;36779;52.168;20.878;2023-06-22T11:15:39;5.10;;;4.10;;
50681;SDS011;36779;52.168;20.878;2023-06-22T11:18:08;6.10;;;4.20;;
50681;SDS011;36779;52.168;20.878;2023-06-22T11:20:40;5.90;;;4.30;;
50681;SDS011;36779;52.168;20.878;2023-06-22T11:23:09;6.00;;;3.90;;
50681;SDS011;36779;52.168;20.878;2023-06-22T11:25:39;5.10;;;3.70;;
50681;SDS011;36779;52.168;20.878;2023-06-22T11:28:09;4.30;;;3.80;;
50681;SDS011;36779;52.168;20.878;2023-06-22T11:30:42;4.70;;;4.10;;
50681;SDS011;36779;52.168;20.878;2023-06-22T11:33:10;5.70;;;4.20;;
50681;SDS011;36779;52.168;20.878;2023-06-22T11:35:39;4.80;;;4.20;;
50681;SDS011;36779;52.168;20.878;2023-06-22T11:38:08;7.60;;;4.50;;
50681;SDS011;36779;52.168;20.878;2023-06-22T11:40:43;5.50;;;4.20;;
50681;SDS011;36779;52.168;20.878;2023-06-22T11:43:12;5.70;;;4.30;;
50681;SDS011;36779;52.168;20.878;2023-06-22T11:45:42;4.30;;;3.90;;
50681;SDS011;36779;52.168;20.878;2023-06-22T11:48:11;5.60;;;3.80;;
50681;SDS011;36779;52.168;20.878;2023-06-22T11:50:39;4.20;;;3.60;;
50681;SDS011;36779;52.168;20.878;2023-06-22T11:53:08;4.40;;;3.70;;
50681;SDS011;36779;52.168;20.878;2023-06-22T11:55:40;4.60;;;3.70;;
50681;SDS011;36779;52.168;20.878;2023-06-22T11:58:10;4.40;;;3.60;;
50681;SDS011;36779;52.168;20.878;2023-06-22T12:00:40;5.50;;;4.20;;
50681;SDS011;36779;52.168;20.878;2023-06-22T12:03:18;4.20;;;3.60;;
50681;SDS011;36779;52.168;20.878;2023-06-22T12:05:50;5.90;;;4.10;;
50681;SDS011;36779;52.168;20.878;2023-06-22T12:08:19;5.40;;;3.90;;
50681;SDS011;36779;52.168;20.878;2023-06-22T12:10:50;4.30;;;3.70;;
50681;SDS011;36779;52.168;20.878;2023-06-22T12:13:21;5.10;;;3.80;;
50681;SDS011;36779;52.168;20.878;2023-06-22T12:15:50;5.00;;;3.90;;
50681;SDS011;36779;52.168;20.878;2023-06-22T12:18:19;3.80;;;3.40;;
50681;SDS011;36779;52.168;20.878;2023-06-22T12:20:51;7.10;;;4.10;;
50681;SDS011;36779;52.168;20.878;2023-06-22T12:23:21;5.90;;;4.20;;
50681;SDS011;36779;52.168;20.878;2023-06-22T12:25:49;5.10;;;4.00;;
50681;SDS011;36779;52.168;20.878;2023-06-22T12:28:18;4.60;;;3.90;;
50681;SDS011;36779;52.168;20.878;2023-06-22T12:30:47;7.20;;;4.10;;
50681;SDS011;36779;52.168;20.878;2023-06-22T12:33:21;5.00;;;3.80;;
50681;SDS011;36779;52.168;20.878;2023-06-22T12:35:53;5.30;;;3.40;;
50681;SDS011;36779;52.168;20.878;2023-06-22T12:38:22;4.30;;;3.50;;
50681;SDS011;36779;52.168;20.878;2023-06-22T12:40:52;4.80;;;3.50;;
50681;SDS011;36779;52.168;20.878;2023-06-22T12:43:21;6.30;;;3.60;;
50681;SDS011;36779;52.168;20.878;2023-06-22T12:45:53;6.00;;;3.60;;
50681;SDS011;36779;52.168;20.878;2023-06-22T12:48:22;4.20;;;3.80;;
50681;SDS011;36779;52.168;20.878;2023-06-22T12:50:54;5.00;;;4.00;;
50681;SDS011;36779;52.168;20.878;2023-06-22T12:53:23;4.80;;;3.90;;
50681;SDS011;36779;52.168;20.878;2023-06-22T12:55:54;4.90;;;3.60;;
50681;SDS011;36779;52.168;20.878;2023-06-22T12:58:23;5.80;;;3.60;;
50681;SDS011;36779;52.168;20.878;2023-06-22T13:00:54;6.10;;;3.80;;
50681;SDS011;36779;52.168;20.878;2023-06-22T13:03:23;4.20;;;3.80;;
50681;SDS011;36779;52.168;20.878;2023-06-22T13:05:54;4.60;;;3.80;;
50681;SDS011;36779;52.168;20.878;2023-06-22T13:08:30;5.50;;;4.00;;
50681;SDS011;36779;52.168;20.878;2023-06-22T13:11:18;5.40;;;3.40;;
50681;SDS011;36779;52.168;20.878;2023-06-22T13:13:47;5.50;;;3.50;;
50681;SDS011;36779;52.168;20.878;2023-06-22T13:16:16;5.90;;;4.10;;
50681;SDS011;36779;52.168;20.878;2023-06-22T13:18:45;3.60;;;3.20;;
50681;SDS011;36779;52.168;20.878;2023-06-22T13:21:14;3.90;;;3.20;;
50681;SDS011;36779;52.168;20.878;2023-06-22T13:23:43;5.20;;;3.60;;
50681;SDS011;36779;52.168;20.878;2023-06-22T13:26:15;4.30;;;3.70;;
50681;SDS011;36779;52.168;20.878;2023-06-22T13:28:43;5.40;;;3.70;;
50681;SDS011;36779;52.168;20.878;2023-06-22T13:31:15;4.20;;;3.70;;
50681;SDS011;36779;52.168;20.878;2023-06-22T13:33:44;3.30;;;3.00;;
50681;SDS011;36779;52.168;20.878;2023-06-22T13:36:15;3.70;;;3.40;;
50681;SDS011;36779;52.168;20.878;2023-06-22T13:41:21;3.80;;;3.50;;
50681;SDS011;36779;52.168;20.878;2023-06-22T13:43:51;4.30;;;3.00;;
50681;SDS011;36779;52.168;20.878;2023-06-22T13:46:20;5.00;;;3.20;;
50681;SDS011;36779;52.168;20.878;2023-06-22T13:48:52;5.30;;;3.40;;
50681;SDS011;36779;52.168;20.878;2023-06-22T13:51:25;4.50;;;3.20;;
50681;SDS011;36779;52.168;20.878;2023-06-22T13:53:54;3.60;;;3.20;;
50681;SDS011;36779;52.168;20.878;2023-06-22T13:56:23;3.70;;;3.10;;
50681;SDS011;36779;52.168;20.878;2023-06-22T13:58:52;4.40;;;3.50;;
50681;SDS011;36779;52.168;20.878;2023-06-22T14:01:23;4.00;;;3.60;;
50681;SDS011;36779;52.168;20.878;2023-06-22T14:03:55;4.20;;;3.10;;
50681;SDS011;36779;52.168;20.878;2023-06-22T14:06:26;4.50;;;3.60;;
50681;SDS011;36779;52.168;20.878;2023-06-22T14:08:55;4.30;;;3.50;;
50681;SDS011;36779;52.168;20.878;2023-06-22T14:11:25;6.20;;;3.50;;
50681;SDS011;36779;52.168;20.878;2023-06-22T14:13:54;7.50;;;3.70;;
50681;SDS011;36779;52.168;20.878;2023-06-22T14:16:27;5.30;;;3.60;;
50681;SDS011;36779;52.168;20.878;2023-06-22T14:19:10;3.80;;;3.40;;
50681;SDS011;36779;52.168;20.878;2023-06-22T14:21:42;4.10;;;3.60;;
50681;SDS011;36779;52.168;20.878;2023-06-22T14:24:17;4.60;;;3.90;;
50681;SDS011;36779;52.168;20.878;2023-06-22T14:26:47;6.40;;;3.70;;
50681;SDS011;36779;52.168;20.878;2023-06-22T14:29:16;4.90;;;3.70;;
50681;SDS011;36779;52.168;20.878;2023-06-22T14:31:45;6.30;;;3.90;;
50681;SDS011;36779;52.168;20.878;2023-06-22T14:34:18;7.90;;;4.30;;
50681;SDS011;36779;52.168;20.878;2023-06-22T14:36:47;6.00;;;4.10;;
50681;SDS011;36779;52.168;20.878;2023-06-22T14:39:15;4.10;;;3.80;;
50681;SDS011;36779;52.168;20.878;2023-06-22T14:41:44;4.40;;;4.00;;
50681;SDS011;36779;52.168;20.878;2023-06-22T14:44:13;5.00;;;4.20;;
50681;SDS011;36779;52.168;20.878;2023-06-22T14:46:44;5.20;;;4.10;;
50681;SDS011;36779;52.168;20.878;2023-06-22T14:49:13;4.70;;;4.30;;
50681;SDS011;36779;52.168;20.878;2023-06-22T14:51:42;4.90;;;4.30;;
50681;SDS011;36779;52.168;20.878;2023-06-22T14:54:10;4.60;;;4.20;;
50681;SDS011;36779;52.168;20.878;2023-06-22T14:56:41;7.40;;;4.60;;